Sunday, December 17, 2017, 4:28 PM EST
Back to Local

KMQE, Milton Blue Hill Observ

Location: Milton, MA, United States Lat: 42.217
Local Time: 4:28 PM EST (21:28 GMT) Lon: -71.117
Time Zone: US/Eastern Elev: 629 ft

Show me the last for .
Show Decoded

2017-12-17 15:56 METAR KMQE 172056Z AUTO 30008KT M04/M13 A3019 RMK AO1 SLP245 T10441128 53005 =
2017-12-17 14:56 METAR KMQE 171956Z AUTO 29007KT M04/M13 A3017 RMK AO1 SLP237 T10391128 =
2017-12-17 13:56 METAR KMQE 171856Z AUTO 30006KT M03/M14 A3017 RMK AO1 SLP237 T10331139 =
2017-12-17 12:56 METAR KMQE 171756Z AUTO VRB06KT M03/M15 A3018 RMK AO1 SLP239 T10331150 11033
                 21094 58014 =
2017-12-17 11:56 METAR KMQE 171656Z AUTO 30010KT M04/M14 A3020 RMK AO1 SLP246 T10391144 =
2017-12-17 10:56 METAR KMQE 171556Z AUTO 32008KT M05/M14 A3020 RMK AO1 SLP248 T10501139 =
2017-12-17 09:56 METAR KMQE 171456Z AUTO 32010G17KT M07/M14 A3022 RMK AO1 SLP254 T10671144 50007
                 =
2017-12-17 08:56 METAR KMQE 171356Z AUTO 29007KT M08/M12 A3022 RMK AO1 SLP255 T10781122 =
2017-12-17 07:56 METAR KMQE 171256Z AUTO 29009KT M09/M14 A3021 RMK AO1 SLP251 T10941139 =
2017-12-17 06:56 METAR KMQE 171156Z AUTO 31009KT M09/M13 A3020 RMK AO1 SLP247 T10941128 11072
                 21094 50014 =
2017-12-17 05:56 METAR KMQE 171056Z AUTO 29010KT M09/M14 A3020 RMK AO1 SLP249 T10891144 =
2017-12-17 04:56 METAR KMQE 170956Z AUTO 29012KT M09/M14 A3018 RMK AO1 SLP240 T10891139 =
2017-12-17 03:56 METAR KMQE 170856Z AUTO 28012KT M08/M13 A3016 RMK AO1 SLP232 T10831128 51010 =
2017-12-17 02:56 METAR KMQE 170756Z AUTO 29009KT M08/M12 A3015 RMK AO1 SLP231 T10831117 =
2017-12-17 01:56 METAR KMQE 170656Z AUTO 30008KT M08/M11 A3014 RMK AO1 SLP227 T10781106 =
2017-12-17 00:56 METAR KMQE 170556Z AUTO 31007KT M07/M10 A3013 RMK AO1 SLP222 T10721100 11039
                 21072 51014 =
2017-12-16 23:56 METAR KMQE 170456Z AUTO 30009KT M07/M09 A3012 RMK AO1 SLP218 T10671094 410061078
                 =
2017-12-16 22:56 METAR KMQE 170356Z AUTO 29010KT M06/M10 A3011 RMK AO1 SLP215 T10561100 =
2017-12-16 21:56 METAR KMQE 170256Z AUTO 30009KT M05/M09 A3009 RMK AO1 SLP208 T10501094 51025 =
2017-12-16 20:56 METAR KMQE 170156Z AUTO 30009KT M04/M09 A3007 RMK AO1 SLP201 T10441094 =
2017-12-16 19:56 METAR KMQE 170056Z AUTO 30008KT M04/M09 A3003 RMK AO1 SLP191 T10441089 =
2017-12-16 18:56 METAR KMQE 162356Z AUTO 28012KT M04/M08 A3001 RMK AO1 SLP183 T10391083 11006
                 21039 51036 =
2017-12-16 17:56 METAR KMQE 162256Z AUTO 28010KT M03/M08 A2998 RMK AO1 SLP171 T10331078 =
2017-12-16 16:56 METAR KMQE 162156Z AUTO 28011KT M03/M09 A2994 RMK AO1 SLP159 T10281089 =

Support USWX by starting your Amazon purchase here.